sensor_id;sensor_type;location;lat;lon;timestamp;P1;durP1;ratioP1;P2;durP2;ratioP2
3677;SDS011;1855;50.934;6.958;2024-03-22T05:30:33;13.40;;;12.00;;
3677;SDS011;1855;50.934;6.958;2024-03-22T05:33:00;14.10;;;12.48;;
3677;SDS011;1855;50.934;6.958;2024-03-22T05:35:26;13.43;;;12.03;;
3677;SDS011;1855;50.934;6.958;2024-03-22T05:37:53;14.07;;;12.68;;
3677;SDS011;1855;50.934;6.958;2024-03-22T05:40:19;13.95;;;11.90;;
3677;SDS011;1855;50.934;6.958;2024-03-22T05:42:46;14.13;;;12.63;;
3677;SDS011;1855;50.934;6.958;2024-03-22T05:45:11;13.73;;;12.25;;
3677;SDS011;1855;50.934;6.958;2024-03-22T05:47:39;13.18;;;11.45;;
3677;SDS011;1855;50.934;6.958;2024-03-22T05:50:06;14.30;;;12.88;;
3677;SDS011;1855;50.934;6.958;2024-03-22T05:52:34;13.50;;;11.90;;
3677;SDS011;1855;50.934;6.958;2024-03-22T05:55:00;12.60;;;11.32;;
3677;SDS011;1855;50.934;6.958;2024-03-22T05:57:27;12.75;;;11.32;;
3677;SDS011;1855;50.934;6.958;2024-03-22T05:59:53;12.43;;;10.88;;
3677;SDS011;1855;50.934;6.958;2024-03-22T06:02:20;13.32;;;11.93;;
3677;SDS011;1855;50.934;6.958;2024-03-22T06:04:47;12.90;;;11.60;;
3677;SDS011;1855;50.934;6.958;2024-03-22T06:07:14;12.55;;;11.35;;
3677;SDS011;1855;50.934;6.958;2024-03-22T06:09:41;12.88;;;11.35;;
3677;SDS011;1855;50.934;6.958;2024-03-22T06:12:11;12.95;;;11.65;;
3677;SDS011;1855;50.934;6.958;2024-03-22T06:14:37;12.68;;;11.38;;
3677;SDS011;1855;50.934;6.958;2024-03-22T06:17:05;13.70;;;12.30;;
3677;SDS011;1855;50.934;6.958;2024-03-22T06:19:31;13.70;;;12.30;;
3677;SDS011;1855;50.934;6.958;2024-03-22T06:21:59;13.55;;;12.15;;
3677;SDS011;1855;50.934;6.958;2024-03-22T06:24:24;12.50;;;11.05;;
3677;SDS011;1855;50.934;6.958;2024-03-22T06:26:51;13.55;;;12.20;;
3677;SDS011;1855;50.934;6.958;2024-03-22T06:29:17;14.23;;;11.77;;
3677;SDS011;1855;50.934;6.958;2024-03-22T06:31:43;13.00;;;11.70;;
3677;SDS011;1855;50.934;6.958;2024-03-22T06:34:09;14.80;;;12.20;;
3677;SDS011;1855;50.934;6.958;2024-03-22T06:36:36;14.20;;;11.80;;
3677;SDS011;1855;50.934;6.958;2024-03-22T06:39:03;13.80;;;12.30;;
3677;SDS011;1855;50.934;6.958;2024-03-22T06:41:32;14.05;;;12.25;;
3677;SDS011;1855;50.934;6.958;2024-03-22T06:43:59;13.85;;;12.35;;
3677;SDS011;1855;50.934;6.958;2024-03-22T06:46:25;13.45;;;12.05;;
3677;SDS011;1855;50.934;6.958;2024-03-22T06:48:51;14.10;;;12.60;;
3677;SDS011;1855;50.934;6.958;2024-03-22T06:51:18;13.80;;;12.07;;
3677;SDS011;1855;50.934;6.958;2024-03-22T06:53:44;13.65;;;12.35;;
3677;SDS011;1855;50.934;6.958;2024-03-22T06:56:14;14.30;;;12.80;;
3677;SDS011;1855;50.934;6.958;2024-03-22T06:58:40;13.75;;;12.30;;
3677;SDS011;1855;50.934;6.958;2024-03-22T07:01:06;14.40;;;12.90;;
3677;SDS011;1855;50.934;6.958;2024-03-22T07:03:32;14.57;;;12.00;;
3677;SDS011;1855;50.934;6.958;2024-03-22T07:05:59;14.70;;;12.50;;
3677;SDS011;1855;50.934;6.958;2024-03-22T07:08:25;14.15;;;12.68;;
3677;SDS011;1855;50.934;6.958;2024-03-22T07:10:53;13.55;;;11.57;;
3677;SDS011;1855;50.934;6.958;2024-03-22T07:13:21;13.80;;;12.40;;
3677;SDS011;1855;50.934;6.958;2024-03-22T07:15:47;15.02;;;12.40;;
3677;SDS011;1855;50.934;6.958;2024-03-22T07:18:14;14.57;;;12.20;;
3677;SDS011;1855;50.934;6.958;2024-03-22T07:20:40;13.48;;;12.07;;
3677;SDS011;1855;50.934;6.958;2024-03-22T07:23:07;13.38;;;11.10;;
3677;SDS011;1855;50.934;6.958;2024-03-22T07:25:33;12.00;;;10.80;;
3677;SDS011;1855;50.934;6.958;2024-03-22T07:28:00;12.30;;;11.00;;
3677;SDS011;1855;50.934;6.958;2024-03-22T07:30:27;12.88;;;11.38;;
3677;SDS011;1855;50.934;6.958;2024-03-22T07:32:53;13.63;;;12.23;;
3677;SDS011;1855;50.934;6.958;2024-03-22T07:35:19;12.33;;;11.03;;
3677;SDS011;1855;50.934;6.958;2024-03-22T07:37:46;13.27;;;11.98;;
3677;SDS011;1855;50.934;6.958;2024-03-22T07:40:12;13.37;;;11.53;;
3677;SDS011;1855;50.934;6.958;2024-03-22T07:42:39;12.40;;;11.10;;
3677;SDS011;1855;50.934;6.958;2024-03-22T07:45:05;13.30;;;11.80;;
3677;SDS011;1855;50.934;6.958;2024-03-22T07:47:33;12.52;;;10.95;;
3677;SDS011;1855;50.934;6.958;2024-03-22T07:49:59;13.05;;;11.75;;
3677;SDS011;1855;50.934;6.958;2024-03-22T07:52:26;12.80;;;11.60;;
3677;SDS011;1855;50.934;6.958;2024-03-22T07:54:51;12.82;;;11.52;;
3677;SDS011;1855;50.934;6.958;2024-03-22T07:57:18;11.77;;;10.63;;
3677;SDS011;1855;50.934;6.958;2024-03-22T07:59:45;12.50;;;11.20;;
3677;SDS011;1855;50.934;6.958;2024-03-22T08:02:12;13.67;;;12.27;;
3677;SDS011;1855;50.934;6.958;2024-03-22T08:04:39;13.50;;;11.70;;
3677;SDS011;1855;50.934;6.958;2024-03-22T08:07:06;13.48;;;12.07;;
3677;SDS011;1855;50.934;6.958;2024-03-22T08:09:32;15.17;;;11.43;;
3677;SDS011;1855;50.934;6.958;2024-03-22T08:11:58;13.35;;;12.15;;
3677;SDS011;1855;50.934;6.958;2024-03-22T08:14:24;13.90;;;12.50;;
3677;SDS011;1855;50.934;6.958;2024-03-22T08:16:51;13.45;;;12.05;;
3677;SDS011;1855;50.934;6.958;2024-03-22T08:19:17;15.55;;;13.98;;
3677;SDS011;1855;50.934;6.958;2024-03-22T08:21:45;16.10;;;14.50;;
3677;SDS011;1855;50.934;6.958;2024-03-22T08:24:10;15.50;;;14.00;;
3677;SDS011;1855;50.934;6.958;2024-03-22T08:26:37;16.35;;;14.50;;
3677;SDS011;1855;50.934;6.958;2024-03-22T08:29:03;16.13;;;14.27;;
3677;SDS011;1855;50.934;6.958;2024-03-22T08:31:29;15.82;;;14.25;;
3677;SDS011;1855;50.934;6.958;2024-03-22T08:33:55;15.10;;;13.50;;
3677;SDS011;1855;50.934;6.958;2024-03-22T08:36:22;15.77;;;14.27;;
3677;SDS011;1855;50.934;6.958;2024-03-22T08:38:50;15.15;;;13.65;;
3677;SDS011;1855;50.934;6.958;2024-03-22T08:41:16;15.37;;;13.87;;
3677;SDS011;1855;50.934;6.958;2024-03-22T08:43:42;14.40;;;13.10;;
3677;SDS011;1855;50.934;6.958;2024-03-22T08:46:09;14.93;;;13.45;;
3677;SDS011;1855;50.934;6.958;2024-03-22T08:48:35;14.57;;;13.07;;
3677;SDS011;1855;50.934;6.958;2024-03-22T08:51:02;13.70;;;12.40;;
3677;SDS011;1855;50.934;6.958;2024-03-22T08:53:28;13.70;;;12.38;;
3677;SDS011;1855;50.934;6.958;2024-03-22T08:55:56;14.63;;;13.13;;
3677;SDS011;1855;50.934;6.958;2024-03-22T08:58:21;14.70;;;13.30;;
3677;SDS011;1855;50.934;6.958;2024-03-22T09:00:48;14.20;;;12.80;;
3677;SDS011;1855;50.934;6.958;2024-03-22T09:03:14;14.82;;;13.23;;
3677;SDS011;1855;50.934;6.958;2024-03-22T09:05:41;15.50;;;13.03;;
3677;SDS011;1855;50.934;6.958;2024-03-22T09:08:07;14.80;;;13.20;;
3677;SDS011;1855;50.934;6.958;2024-03-22T09:10:34;12.52;;;11.05;;
3677;SDS011;1855;50.934;6.958;2024-03-22T09:13:01;12.75;;;11.45;;
3677;SDS011;1855;50.934;6.958;2024-03-22T09:15:28;11.98;;;10.77;;
3677;SDS011;1855;50.934;6.958;2024-03-22T09:17:54;9.98;;;8.98;;
3677;SDS011;1855;50.934;6.958;2024-03-22T09:20:20;9.57;;;8.50;;
3677;SDS011;1855;50.934;6.958;2024-03-22T09:22:46;9.35;;;7.65;;
3677;SDS011;1855;50.934;6.958;2024-03-22T09:25:14;7.90;;;6.70;;
3677;SDS011;1855;50.934;6.958;2024-03-22T09:27:40;6.65;;;6.05;;
3677;SDS011;1855;50.934;6.958;2024-03-22T09:30:08;6.18;;;5.57;;
3677;SDS011;1855;50.934;6.958;2024-03-22T09:32:35;6.72;;;5.68;;
3677;SDS011;1855;50.934;6.958;2024-03-22T09:35:02;6.93;;;5.85;;
3677;SDS011;1855;50.934;6.958;2024-03-22T09:37:27;8.75;;;6.68;;
3677;SDS011;1855;50.934;6.958;2024-03-22T09:39:54;7.07;;;6.38;;
3677;SDS011;1855;50.934;6.958;2024-03-22T09:42:20;7.72;;;6.40;;
3677;SDS011;1855;50.934;6.958;2024-03-22T09:44:50;6.95;;;6.00;;
3677;SDS011;1855;50.934;6.958;2024-03-22T09:47:17;9.13;;;6.55;;
3677;SDS011;1855;50.934;6.958;2024-03-22T09:49:46;8.18;;;7.00;;
3677;SDS011;1855;50.934;6.958;2024-03-22T09:52:14;6.53;;;5.93;;
3677;SDS011;1855;50.934;6.958;2024-03-22T09:54:42;6.65;;;5.90;;
3677;SDS011;1855;50.934;6.958;2024-03-22T09:57:09;6.80;;;6.20;;
3677;SDS011;1855;50.934;6.958;2024-03-22T09:59:40;6.80;;;6.10;;
3677;SDS011;1855;50.934;6.958;2024-03-22T10:02:06;7.40;;;6.15;;
3677;SDS011;1855;50.934;6.958;2024-03-22T10:04:38;6.93;;;6.22;;
3677;SDS011;1855;50.934;6.958;2024-03-22T10:07:05;6.65;;;6.03;;
3677;SDS011;1855;50.934;6.958;2024-03-22T10:09:33;6.90;;;6.20;;
3677;SDS011;1855;50.934;6.958;2024-03-22T10:11:59;6.93;;;6.13;;
3677;SDS011;1855;50.934;6.958;2024-03-22T10:14:26;6.93;;;6.22;;
3677;SDS011;1855;50.934;6.958;2024-03-22T10:16:51;7.20;;;6.38;;
3677;SDS011;1855;50.934;6.958;2024-03-22T10:19:19;7.50;;;6.30;;
3677;SDS011;1855;50.934;6.958;2024-03-22T10:21:47;6.50;;;5.90;;
3677;SDS011;1855;50.934;6.958;2024-03-22T10:24:14;7.75;;;6.30;;
3677;SDS011;1855;50.934;6.958;2024-03-22T10:26:40;7.05;;;6.15;;
3677;SDS011;1855;50.934;6.958;2024-03-22T10:29:06;6.83;;;6.13;;
3677;SDS011;1855;50.934;6.958;2024-03-22T10:31:34;6.67;;;6.07;;
3677;SDS011;1855;50.934;6.958;2024-03-22T10:34:02;6.47;;;5.85;;
3677;SDS011;1855;50.934;6.958;2024-03-22T10:36:29;6.72;;;6.05;;
3677;SDS011;1855;50.934;6.958;2024-03-22T10:38:58;6.57;;;5.38;;
3677;SDS011;1855;50.934;6.958;2024-03-22T10:41:24;8.23;;;5.80;;
3677;SDS011;1855;50.934;6.958;2024-03-22T10:43:51;6.05;;;5.43;;
3677;SDS011;1855;50.934;6.958;2024-03-22T10:46:17;6.13;;;5.30;;
3677;SDS011;1855;50.934;6.958;2024-03-22T10:48:46;6.60;;;5.32;;
3677;SDS011;1855;50.934;6.958;2024-03-22T10:51:12;6.17;;;5.30;;
3677;SDS011;1855;50.934;6.958;2024-03-22T10:53:41;6.72;;;6.13;;
3677;SDS011;1855;50.934;6.958;2024-03-22T10:56:11;7.13;;;6.40;;
3677;SDS011;1855;50.934;6.958;2024-03-22T10:58:41;6.93;;;5.68;;
3677;SDS011;1855;50.934;6.958;2024-03-22T11:01:10;6.40;;;5.80;;
3677;SDS011;1855;50.934;6.958;2024-03-22T11:03:48;7.90;;;5.88;;
3677;SDS011;1855;50.934;6.958;2024-03-22T11:06:17;7.25;;;5.80;;
3677;SDS011;1855;50.934;6.958;2024-03-22T11:08:49;6.57;;;5.88;;
3677;SDS011;1855;50.934;6.958;2024-03-22T11:11:17;7.88;;;6.85;;
3677;SDS011;1855;50.934;6.958;2024-03-22T11:13:46;7.47;;;6.45;;
3677;SDS011;1855;50.934;6.958;2024-03-22T11:16:13;8.50;;;7.20;;
3677;SDS011;1855;50.934;6.958;2024-03-22T11:18:40;9.23;;;6.70;;
3677;SDS011;1855;50.934;6.958;2024-03-22T11:21:06;8.30;;;7.50;;
3677;SDS011;1855;50.934;6.958;2024-03-22T11:23:34;8.43;;;7.50;;
3677;SDS011;1855;50.934;6.958;2024-03-22T11:26:01;8.30;;;7.40;;
3677;SDS011;1855;50.934;6.958;2024-03-22T11:28:30;8.18;;;7.38;;
3677;SDS011;1855;50.934;6.958;2024-03-22T11:30:55;8.85;;;7.45;;
3677;SDS011;1855;50.934;6.958;2024-03-22T11:33:22;9.38;;;8.55;;
3677;SDS011;1855;50.934;6.958;2024-03-22T11:35:48;11.00;;;8.75;;
3677;SDS011;1855;50.934;6.958;2024-03-22T11:38:15;9.50;;;8.50;;
3677;SDS011;1855;50.934;6.958;2024-03-22T11:40:41;9.73;;;8.75;;
3677;SDS011;1855;50.934;6.958;2024-03-22T11:43:08;9.30;;;8.30;;
3677;SDS011;1855;50.934;6.958;2024-03-22T11:45:38;8.70;;;7.80;;
3677;SDS011;1855;50.934;6.958;2024-03-22T11:48:05;8.68;;;7.78;;
3677;SDS011;1855;50.934;6.958;2024-03-22T11:50:31;9.20;;;8.18;;
3677;SDS011;1855;50.934;6.958;2024-03-22T11:52:58;8.70;;;7.80;;
3677;SDS011;1855;50.934;6.958;2024-03-22T11:55:26;9.17;;;8.30;;
3677;SDS011;1855;50.934;6.958;2024-03-22T11:57:53;8.70;;;7.90;;
3677;SDS011;1855;50.934;6.958;2024-03-22T12:00:22;9.02;;;7.85;;
3677;SDS011;1855;50.934;6.958;2024-03-22T12:02:52;9.23;;;8.23;;
3677;SDS011;1855;50.934;6.958;2024-03-22T12:05:18;9.95;;;8.95;;
3677;SDS011;1855;50.934;6.958;2024-03-22T12:07:45;9.45;;;8.55;;
3677;SDS011;1855;50.934;6.958;2024-03-22T12:10:11;9.60;;;8.60;;
3677;SDS011;1855;50.934;6.958;2024-03-22T12:12:38;10.07;;;8.90;;
3677;SDS011;1855;50.934;6.958;2024-03-22T12:15:04;9.87;;;8.87;;
3677;SDS011;1855;50.934;6.958;2024-03-22T12:17:32;9.20;;;8.30;;
3677;SDS011;1855;50.934;6.958;2024-03-22T12:20:00;11.07;;;9.25;;
3677;SDS011;1855;50.934;6.958;2024-03-22T12:22:29;10.73;;;9.23;;
3677;SDS011;1855;50.934;6.958;2024-03-22T12:24:54;9.37;;;8.57;;
3677;SDS011;1855;50.934;6.958;2024-03-22T12:27:22;9.90;;;8.90;;
3677;SDS011;1855;50.934;6.958;2024-03-22T12:29:48;10.30;;;9.40;;
3677;SDS011;1855;50.934;6.958;2024-03-22T12:32:14;10.20;;;9.05;;
3677;SDS011;1855;50.934;6.958;2024-03-22T12:34:40;10.40;;;9.40;;
3677;SDS011;1855;50.934;6.958;2024-03-22T12:37:08;9.60;;;8.60;;
3677;SDS011;1855;50.934;6.958;2024-03-22T12:39:34;10.15;;;9.05;;
3677;SDS011;1855;50.934;6.958;2024-03-22T12:42:02;10.80;;;9.30;;
3677;SDS011;1855;50.934;6.958;2024-03-22T12:44:28;12.00;;;9.55;;
3677;SDS011;1855;50.934;6.958;2024-03-22T12:46:55;10.32;;;9.27;;
3677;SDS011;1855;50.934;6.958;2024-03-22T12:49:21;10.20;;;9.20;;
3677;SDS011;1855;50.934;6.958;2024-03-22T12:51:48;10.40;;;9.30;;
3677;SDS011;1855;50.934;6.958;2024-03-22T12:54:16;10.23;;;9.07;;
3677;SDS011;1855;50.934;6.958;2024-03-22T12:56:45;10.38;;;9.38;;
3677;SDS011;1855;50.934;6.958;2024-03-22T12:59:11;9.90;;;8.90;;
3677;SDS011;1855;50.934;6.958;2024-03-22T13:01:37;9.77;;;8.77;;
3677;SDS011;1855;50.934;6.958;2024-03-22T13:04:03;9.50;;;8.50;;
3677;SDS011;1855;50.934;6.958;2024-03-22T13:06:30;8.70;;;7.85;;
3677;SDS011;1855;50.934;6.958;2024-03-22T13:08:56;8.80;;;7.88;;
3677;SDS011;1855;50.934;6.958;2024-03-22T13:11:24;8.23;;;7.32;;
3677;SDS011;1855;50.934;6.958;2024-03-22T13:13:50;8.02;;;7.22;;
3677;SDS011;1855;50.934;6.958;2024-03-22T13:16:16;8.30;;;7.50;;
3677;SDS011;1855;50.934;6.958;2024-03-22T13:18:42;8.40;;;7.60;;
3677;SDS011;1855;50.934;6.958;2024-03-22T13:21:09;8.90;;;8.00;;
3677;SDS011;1855;50.934;6.958;2024-03-22T13:23:36;9.95;;;7.93;;
3677;SDS011;1855;50.934;6.958;2024-03-22T13:26:03;8.90;;;8.10;;
3677;SDS011;1855;50.934;6.958;2024-03-22T13:28:31;9.10;;;8.20;;
3677;SDS011;1855;50.934;6.958;2024-03-22T13:31:02;10.07;;;9.07;;
3677;SDS011;1855;50.934;6.958;2024-03-22T13:33:28;10.80;;;9.20;;
3677;SDS011;1855;50.934;6.958;2024-03-22T13:35:55;9.77;;;8.77;;
3677;SDS011;1855;50.934;6.958;2024-03-22T13:38:21;10.20;;;9.18;;
3677;SDS011;1855;50.934;6.958;2024-03-22T13:40:54;9.95;;;8.95;;
3677;SDS011;1855;50.934;6.958;2024-03-22T13:43:21;11.15;;;8.98;;
3677;SDS011;1855;50.934;6.958;2024-03-22T13:45:50;9.65;;;8.27;;
3677;SDS011;1855;50.934;6.958;2024-03-22T13:48:19;9.25;;;8.35;;
3677;SDS011;1855;50.934;6.958;2024-03-22T13:50:49;9.82;;;8.82;;
3677;SDS011;1855;50.934;6.958;2024-03-22T13:53:14;9.85;;;8.35;;
3677;SDS011;1855;50.934;6.958;2024-03-22T13:55:42;10.52;;;9.45;;
3677;SDS011;1855;50.934;6.958;2024-03-22T13:58:07;9.88;;;8.88;;
3677;SDS011;1855;50.934;6.958;2024-03-22T14:00:34;12.75;;;9.73;;
3677;SDS011;1855;50.934;6.958;2024-03-22T14:03:02;9.57;;;8.60;;
3677;SDS011;1855;50.934;6.958;2024-03-22T14:05:29;11.88;;;9.43;;
3677;SDS011;1855;50.934;6.958;2024-03-22T14:07:56;11.45;;;10.25;;
3677;SDS011;1855;50.934;6.958;2024-03-22T14:10:22;11.20;;;9.32;;
3677;SDS011;1855;50.934;6.958;2024-03-22T14:12:50;9.07;;;8.27;;
3677;SDS011;1855;50.934;6.958;2024-03-22T14:15:17;9.95;;;8.82;;
3677;SDS011;1855;50.934;6.958;2024-03-22T14:17:42;10.13;;;9.23;;
3677;SDS011;1855;50.934;6.958;2024-03-22T14:20:11;10.10;;;9.10;;
3677;SDS011;1855;50.934;6.958;2024-03-22T14:22:37;10.43;;;9.43;;
3677;SDS011;1855;50.934;6.958;2024-03-22T14:25:05;10.05;;;9.15;;
3677;SDS011;1855;50.934;6.958;2024-03-22T14:27:31;11.05;;;9.95;;
3677;SDS011;1855;50.934;6.958;2024-03-22T14:29:58;10.37;;;9.47;;
3677;SDS011;1855;50.934;6.958;2024-03-22T14:32:24;11.13;;;9.97;;
3677;SDS011;1855;50.934;6.958;2024-03-22T14:34:51;11.00;;;9.90;;
3677;SDS011;1855;50.934;6.958;2024-03-22T14:37:19;11.70;;;10.70;;
3677;SDS011;1855;50.934;6.958;2024-03-22T14:39:45;11.00;;;9.90;;
3677;SDS011;1855;50.934;6.958;2024-03-22T14:42:12;10.40;;;9.40;;
3677;SDS011;1855;50.934;6.958;2024-03-22T14:44:38;9.93;;;8.93;;
3677;SDS011;1855;50.934;6.958;2024-03-22T14:47:05;11.35;;;9.43;;
3677;SDS011;1855;50.934;6.958;2024-03-22T14:49:31;10.25;;;9.15;;
3677;SDS011;1855;50.934;6.958;2024-03-22T14:51:58;10.38;;;9.48;;
3677;SDS011;1855;50.934;6.958;2024-03-22T14:54:25;10.07;;;9.05;;
3677;SDS011;1855;50.934;6.958;2024-03-22T14:56:52;9.80;;;8.80;;
3677;SDS011;1855;50.934;6.958;2024-03-22T14:59:19;9.30;;;8.50;;
3677;SDS011;1855;50.934;6.958;2024-03-22T15:01:45;9.80;;;8.90;;
3677;SDS011;1855;50.934;6.958;2024-03-22T15:04:12;9.20;;;8.30;;
3677;SDS011;1855;50.934;6.958;2024-03-22T15:06:38;9.18;;;8.27;;
3677;SDS011;1855;50.934;6.958;2024-03-22T15:09:05;9.57;;;8.70;;
3677;SDS011;1855;50.934;6.958;2024-03-22T15:11:36;9.45;;;8.55;;
3677;SDS011;1855;50.934;6.958;2024-03-22T15:14:03;10.07;;;8.87;;
3677;SDS011;1855;50.934;6.958;2024-03-22T15:16:29;10.60;;;9.50;;
3677;SDS011;1855;50.934;6.958;2024-03-22T15:18:56;10.18;;;9.15;;
3677;SDS011;1855;50.934;6.958;2024-03-22T15:21:21;11.27;;;10.18;;
3677;SDS011;1855;50.934;6.958;2024-03-22T15:23:48;11.27;;;10.18;;
3677;SDS011;1855;50.934;6.958;2024-03-22T15:26:14;11.13;;;9.93;;
3677;SDS011;1855;50.934;6.958;2024-03-22T15:28:42;11.73;;;10.63;;
3677;SDS011;1855;50.934;6.958;2024-03-22T15:31:08;12.25;;;11.05;;
3677;SDS011;1855;50.934;6.958;2024-03-22T15:33:35;13.63;;;12.23;;
3677;SDS011;1855;50.934;6.958;2024-03-22T15:36:02;13.25;;;11.85;;
3677;SDS011;1855;50.934;6.958;2024-03-22T15:38:28;13.83;;;12.43;;
3677;SDS011;1855;50.934;6.958;2024-03-22T15:40:55;14.05;;;12.75;;
3677;SDS011;1855;50.934;6.958;2024-03-22T15:43:21;13.60;;;12.30;;
3677;SDS011;1855;50.934;6.958;2024-03-22T15:45:49;13.38;;;12.07;;
3677;SDS011;1855;50.934;6.958;2024-03-22T15:48:15;13.70;;;12.30;;
3677;SDS011;1855;50.934;6.958;2024-03-22T15:50:45;13.70;;;12.30;;
3677;SDS011;1855;50.934;6.958;2024-03-22T15:53:11;12.57;;;11.25;;
3677;SDS011;1855;50.934;6.958;2024-03-22T15:55:38;14.60;;;11.82;;
3677;SDS011;1855;50.934;6.958;2024-03-22T15:58:04;12.52;;;11.32;;
3677;SDS011;1855;50.934;6.958;2024-03-22T16:00:30;11.57;;;10.40;;
3677;SDS011;1855;50.934;6.958;2024-03-22T16:02:58;11.88;;;10.68;;
3677;SDS011;1855;50.934;6.958;2024-03-22T16:05:25;13.70;;;11.27;;
3677;SDS011;1855;50.934;6.958;2024-03-22T16:07:51;12.30;;;11.10;;
3677;SDS011;1855;50.934;6.958;2024-03-22T16:10:17;11.70;;;10.50;;
3677;SDS011;1855;50.934;6.958;2024-03-22T16:12:43;12.30;;;11.10;;
3677;SDS011;1855;50.934;6.958;2024-03-22T16:15:10;12.63;;;11.52;;
3677;SDS011;1855;50.934;6.958;2024-03-22T16:17:36;12.50;;;11.30;;
3677;SDS011;1855;50.934;6.958;2024-03-22T16:20:04;12.38;;;11.07;;
3677;SDS011;1855;50.934;6.958;2024-03-22T16:22:34;12.70;;;11.40;;
3677;SDS011;1855;50.934;6.958;2024-03-22T16:25:03;13.53;;;12.13;;
3677;SDS011;1855;50.934;6.958;2024-03-22T16:27:31;13.90;;;12.60;;
3677;SDS011;1855;50.934;6.958;2024-03-22T16:29:58;13.45;;;12.15;;
3677;SDS011;1855;50.934;6.958;2024-03-22T16:32:24;13.87;;;11.50;;
3677;SDS011;1855;50.934;6.958;2024-03-22T16:34:51;13.82;;;12.32;;
3677;SDS011;1855;50.934;6.958;2024-03-22T16:37:18;14.87;;;12.47;;
3677;SDS011;1855;50.934;6.958;2024-03-22T16:39:45;14.53;;;13.10;;
3677;SDS011;1855;50.934;6.958;2024-03-22T16:42:11;13.40;;;12.10;;
3677;SDS011;1855;50.934;6.958;2024-03-22T16:44:38;14.00;;;12.50;;
3677;SDS011;1855;50.934;6.958;2024-03-22T16:47:04;15.15;;;13.65;;
3677;SDS011;1855;50.934;6.958;2024-03-22T16:49:32;14.77;;;13.38;;
3677;SDS011;1855;50.934;6.958;2024-03-22T16:51:58;14.17;;;12.87;;
3677;SDS011;1855;50.934;6.958;2024-03-22T16:54:26;14.27;;;12.87;;
3677;SDS011;1855;50.934;6.958;2024-03-22T16:56:52;14.73;;;13.23;;
3677;SDS011;1855;50.934;6.958;2024-03-22T16:59:19;14.80;;;13.30;;
3677;SDS011;1855;50.934;6.958;2024-03-22T17:01:45;15.18;;;13.60;;
3677;SDS011;1855;50.934;6.958;2024-03-22T17:04:12;14.77;;;13.27;;
3677;SDS011;1855;50.934;6.958;2024-03-22T17:06:38;15.90;;;14.30;;
3677;SDS011;1855;50.934;6.958;2024-03-22T17:09:05;16.20;;;14.50;;
3677;SDS011;1855;50.934;6.958;2024-03-22T17:11:32;17.05;;;15.35;;
3677;SDS011;1855;50.934;6.958;2024-03-22T17:13:59;15.50;;;13.98;;
3677;SDS011;1855;50.934;6.958;2024-03-22T17:16:25;16.17;;;14.57;;
3677;SDS011;1855;50.934;6.958;2024-03-22T17:18:51;17.10;;;15.50;;
3677;SDS011;1855;50.934;6.958;2024-03-22T17:21:19;18.25;;;16.55;;
3677;SDS011;1855;50.934;6.958;2024-03-22T17:23:47;17.25;;;14.52;;
3677;SDS011;1855;50.934;6.958;2024-03-22T17:26:13;17.88;;;16.08;;
3677;SDS011;1855;50.934;6.958;2024-03-22T17:28:41;17.30;;;15.57;;
3677;SDS011;1855;50.934;6.958;2024-03-22T17:31:07;17.33;;;15.70;;
3677;SDS011;1855;50.934;6.958;2024-03-22T17:33:34;15.93;;;14.55;;
3677;SDS011;1855;50.934;6.958;2024-03-22T17:36:00;16.57;;;14.87;;
3677;SDS011;1855;50.934;6.958;2024-03-22T17:38:27;16.75;;;15.05;;
3677;SDS011;1855;50.934;6.958;2024-03-22T17:40:53;15.93;;;14.43;;
3677;SDS011;1855;50.934;6.958;2024-03-22T17:43:19;15.57;;;14.20;;
3677;SDS011;1855;50.934;6.958;2024-03-22T17:45:55;15.68;;;14.27;;
3677;SDS011;1855;50.934;6.958;2024-03-22T17:48:22;16.85;;;15.35;;
3677;SDS011;1855;50.934;6.958;2024-03-22T17:50:48;16.80;;;15.20;;
3677;SDS011;1855;50.934;6.958;2024-03-22T17:53:15;16.48;;;14.85;;
3677;SDS011;1855;50.934;6.958;2024-03-22T17:55:41;17.73;;;16.02;;
3677;SDS011;1855;50.934;6.958;2024-03-22T17:58:07;19.95;;;17.92;;
3677;SDS011;1855;50.934;6.958;2024-03-22T18:00:33;18.98;;;17.15;;
3677;SDS011;1855;50.934;6.958;2024-03-22T18:03:01;18.63;;;16.83;;
3677;SDS011;1855;50.934;6.958;2024-03-22T18:05:27;17.08;;;15.27;;
3677;SDS011;1855;50.934;6.958;2024-03-22T18:07:54;16.90;;;15.27;;
3677;SDS011;1855;50.934;6.958;2024-03-22T18:10:19;17.65;;;16.10;;
3677;SDS011;1855;50.934;6.958;2024-03-22T18:12:46;17.67;;;15.90;;
3677;SDS011;1855;50.934;6.958;2024-03-22T18:15:12;17.48;;;15.82;;
3677;SDS011;1855;50.934;6.958;2024-03-22T18:17:39;15.32;;;13.90;;
3677;SDS011;1855;50.934;6.958;2024-03-22T18:20:07;14.75;;;13.38;;
3677;SDS011;1855;50.934;6.958;2024-03-22T18:22:34;14.65;;;13.35;;
3677;SDS011;1855;50.934;6.958;2024-03-22T18:25:00;14.80;;;13.50;;
3677;SDS011;1855;50.934;6.958;2024-03-22T18:27:27;14.02;;;12.63;;
3677;SDS011;1855;50.934;6.958;2024-03-22T18:29:53;14.00;;;12.70;;
3677;SDS011;1855;50.934;6.958;2024-03-22T18:32:19;13.40;;;12.10;;
3677;SDS011;1855;50.934;6.958;2024-03-22T18:34:45;12.38;;;11.27;;
3677;SDS011;1855;50.934;6.958;2024-03-22T18:37:13;11.85;;;10.75;;
3677;SDS011;1855;50.934;6.958;2024-03-22T18:39:39;11.60;;;10.50;;
3677;SDS011;1855;50.934;6.958;2024-03-22T18:42:06;12.48;;;11.38;;
3677;SDS011;1855;50.934;6.958;2024-03-22T18:44:31;12.30;;;11.20;;
3677;SDS011;1855;50.934;6.958;2024-03-22T18:46:59;11.57;;;10.57;;
3677;SDS011;1855;50.934;6.958;2024-03-22T18:49:25;12.00;;;10.90;;
3677;SDS011;1855;50.934;6.958;2024-03-22T18:51:51;11.57;;;10.48;;
3677;SDS011;1855;50.934;6.958;2024-03-22T18:54:18;12.45;;;11.30;;
3677;SDS011;1855;50.934;6.958;2024-03-22T18:56:45;12.40;;;11.30;;
3677;SDS011;1855;50.934;6.958;2024-03-22T18:59:11;12.23;;;11.13;;
3677;SDS011;1855;50.934;6.958;2024-03-22T19:01:38;11.70;;;10.70;;
3677;SDS011;1855;50.934;6.958;2024-03-22T19:04:04;11.68;;;10.70;;
3677;SDS011;1855;50.934;6.958;2024-03-22T19:06:31;11.73;;;10.73;;
3677;SDS011;1855;50.934;6.958;2024-03-22T19:08:57;12.07;;;11.00;;
3677;SDS011;1855;50.934;6.958;2024-03-22T19:11:25;11.43;;;10.32;;
3677;SDS011;1855;50.934;6.958;2024-03-22T19:13:50;12.30;;;11.10;;
3677;SDS011;1855;50.934;6.958;2024-03-22T19:16:17;11.55;;;10.48;;
3677;SDS011;1855;50.934;6.958;2024-03-22T19:18:43;12.95;;;11.75;;
3677;SDS011;1855;50.934;6.958;2024-03-22T19:21:09;12.05;;;10.95;;
3677;SDS011;1855;50.934;6.958;2024-03-22T19:23:35;12.40;;;11.40;;
3677;SDS011;1855;50.934;6.958;2024-03-22T19:26:03;13.03;;;11.83;;
3677;SDS011;1855;50.934;6.958;2024-03-22T19:28:30;13.48;;;12.27;;
3677;SDS011;1855;50.934;6.958;2024-03-22T19:30:58;12.38;;;11.30;;
3677;SDS011;1855;50.934;6.958;2024-03-22T19:33:23;12.65;;;11.55;;
3677;SDS011;1855;50.934;6.958;2024-03-22T19:35:50;12.20;;;11.10;;
3677;SDS011;1855;50.934;6.958;2024-03-22T19:38:18;12.50;;;11.30;;
3677;SDS011;1855;50.934;6.958;2024-03-22T19:40:45;11.43;;;10.43;;
3677;SDS011;1855;50.934;6.958;2024-03-22T19:43:10;11.38;;;10.38;;
3677;SDS011;1855;50.934;6.958;2024-03-22T19:45:39;11.45;;;10.45;;
3677;SDS011;1855;50.934;6.958;2024-03-22T19:48:05;10.95;;;10.05;;
3677;SDS011;1855;50.934;6.958;2024-03-22T19:50:32;12.25;;;11.15;;
3677;SDS011;1855;50.934;6.958;2024-03-22T19:52:58;11.48;;;10.48;;
3677;SDS011;1855;50.934;6.958;2024-03-22T19:55:25;10.10;;;9.20;;
3677;SDS011;1855;50.934;6.958;2024-03-22T19:57:50;9.30;;;8.50;;
3677;SDS011;1855;50.934;6.958;2024-03-22T20:00:17;10.40;;;9.50;;
3677;SDS011;1855;50.934;6.958;2024-03-22T20:02:44;9.63;;;8.73;;
3677;SDS011;1855;50.934;6.958;2024-03-22T20:05:11;10.52;;;9.32;;
3677;SDS011;1855;50.934;6.958;2024-03-22T20:07:37;9.48;;;8.68;;
3677;SDS011;1855;50.934;6.958;2024-03-22T20:10:05;8.20;;;7.50;;
3677;SDS011;1855;50.934;6.958;2024-03-22T20:12:31;8.48;;;7.78;;
3677;SDS011;1855;50.934;6.958;2024-03-22T20:14:58;7.70;;;7.00;;
3677;SDS011;1855;50.934;6.958;2024-03-22T20:17:24;7.82;;;7.13;;
3677;SDS011;1855;50.934;6.958;2024-03-22T20:19:52;7.07;;;6.47;;
3677;SDS011;1855;50.934;6.958;2024-03-22T20:22:18;7.50;;;6.80;;
3677;SDS011;1855;50.934;6.958;2024-03-22T20:24:45;7.63;;;6.93;;